Time;durP1;ratioP1;P1;durP2;ratioP2;P2;SDS_P1;SDS_P2;PMS_P1;PMS_P2;Temp;Humidity;BMP_temperature;BMP_pressure;BME280_temperature;BME280_humidity;BME280_pressure;Samples;Min_cycle;Max_cycle;Signal;HPM_P1;HPM_P2
2022/12/17 13:07:19;;;;;;;;;64.75;48.50;;;;;1.80;100.00;102247.31;5041528;28;45312;-77
2022/12/17 13:09:49;;;;;;;;;59.25;45.75;;;;;1.83;100.00;102246.31;5040334;28;45697;-78
2022/12/17 13:12:21;;;;;;;;;52.00;42.00;;;;;1.83;100.00;102255.22;5024169;28;45351;-80
2022/12/17 13:14:49;;;;;;;;;54.50;40.50;;;;;1.85;100.00;102249.81;5042172;28;45273;-77
2022/12/17 13:17:14;;;;;;;;;56.25;39.75;;;;;1.79;100.00;102255.41;5034560;28;45560;-78
2022/12/17 13:19:46;;;;;;;;;61.75;46.00;;;;;1.72;100.00;102251.19;5039570;28;46742;-77
2022/12/17 13:22:34;;;;;;;;;51.75;42.75;;;;;1.62;100.00;102247.09;5039000;28;45362;-78
2022/12/17 13:25:19;;;;;;;;;61.50;47.25;;;;;1.55;100.00;102241.94;5041667;28;45457;-77
2022/12/17 13:27:45;;;;;;;;;56.00;44.50;;;;;1.48;100.00;102240.41;5027499;28;45441;-77
2022/12/17 13:30:16;;;;;;;;;55.25;44.00;;;;;1.39;100.00;102248.78;5041937;28;45479;-78
2022/12/17 13:33:12;;;;;;;;;65.25;47.00;;;;;1.35;100.00;102239.09;5038138;28;45395;-78
2022/12/17 13:35:37;;;;;;;;;52.25;41.25;;;;;1.39;100.00;102253.28;5036261;28;45414;-78
2022/12/17 13:38:32;;;;;;;;;47.75;36.50;;;;;1.33;100.00;102243.63;5031388;28;45336;-76
2022/12/17 13:41:10;;;;;;;;;50.50;41.50;;;;;1.37;100.00;102237.25;5037316;28;46570;-76
2022/12/17 13:43:52;;;;;;;;;69.75;47.75;;;;;1.38;100.00;102236.34;5032353;28;45493;-78
2022/12/17 13:46:25;;;;;;;;;62.00;44.00;;;;;1.32;100.00;102239.19;5038670;28;45359;-76
2022/12/17 13:48:58;;;;;;;;;57.75;46.75;;;;;1.24;100.00;102243.97;5041768;28;45472;-77
2022/12/17 13:51:27;;;;;;;;;49.00;42.00;;;;;1.19;100.00;102240.56;5030309;28;45338;-76
2022/12/17 13:53:58;;;;;;;;;43.50;31.75;;;;;1.11;100.00;102214.06;5040384;28;45817;-78
2022/12/17 13:56:28;;;;;;;;;54.75;43.75;;;;;1.09;100.00;102215.94;5040777;28;45469;-77
2022/12/17 13:58:56;;;;;;;;;55.75;45.50;;;;;1.14;100.00;102229.13;5033425;28;45321;-77
2022/12/17 14:01:22;;;;;;;;;54.25;44.50;;;;;1.08;100.00;102215.97;5039251;28;46955;-78
2022/12/17 14:03:50;;;;;;;;;55.50;47.25;;;;;1.20;100.00;102222.69;5040375;28;45351;-78
2022/12/17 14:06:16;;;;;;;;;47.75;37.00;;;;;1.17;100.00;102234.38;5041149;28;45228;-78
2022/12/17 14:08:43;;;;;;;;;52.00;40.50;;;;;1.21;100.00;102245.88;5040179;28;45393;-79
2022/12/17 14:13:55;;;;;;;;;57.00;43.00;;;;;1.11;100.00;102234.59;5034362;28;45391;-78
2022/12/17 14:16:21;;;;;;;;;59.25;42.25;;;;;1.16;100.00;102235.34;5034006;28;45265;-78
2022/12/17 14:18:52;;;;;;;;;62.25;42.75;;;;;1.15;100.00;102244.28;5034969;28;45259;-79
2022/12/17 14:21:19;;;;;;;;;58.25;45.25;;;;;1.16;100.00;102244.22;5037889;28;45510;-78
2022/12/17 14:23:47;;;;;;;;;65.50;48.25;;;;;1.06;100.00;102252.63;5038841;28;45375;-78
2022/12/17 14:26:13;;;;;;;;;56.00;44.25;;;;;1.04;100.00;102251.78;5035106;28;45442;-78
2022/12/17 14:28:53;;;;;;;;;66.50;48.25;;;;;1.05;100.00;102250.84;5034842;28;45351;-78
2022/12/17 14:31:29;;;;;;;;;61.50;45.75;;;;;1.10;100.00;102248.91;5038992;28;45543;-77
2022/12/17 14:34:09;;;;;;;;;56.50;44.00;;;;;1.12;100.00;102247.94;5031018;28;45489;-78
2022/12/17 14:36:38;;;;;;;;;59.50;48.25;;;;;1.16;100.00;102254.94;5037079;28;45636;-77
2022/12/17 14:39:15;;;;;;;;;69.00;50.00;;;;;1.13;100.00;102259.50;5032927;28;45406;-78
2022/12/17 14:44:28;;;;;;;;;59.50;47.00;;;;;1.07;100.00;102259.72;5030545;28;45315;-80
2022/12/17 14:47:10;;;;;;;;;62.50;46.25;;;;;1.08;100.00;102262.34;5026913;28;45417;-77
2022/12/17 14:49:45;;;;;;;;;44.50;41.00;;;;;1.08;100.00;102253.44;5032560;28;45243;-79
2022/12/17 14:52:12;;;;;;;;;57.75;44.25;;;;;1.11;100.00;102247.97;5036804;28;45385;-77
2022/12/17 14:54:45;;;;;;;;;57.50;43.00;;;;;1.06;100.00;102236.56;5034257;28;45478;-78
2022/12/17 14:57:20;;;;;;;;;66.25;38.25;;;;;1.06;100.00;102231.19;5037032;28;45379;-77
2022/12/17 14:59:45;;;;;;;;;47.00;42.25;;;;;1.06;100.00;102232.06;5036649;28;45257;-77
2022/12/17 15:02:18;;;;;;;;;54.00;42.50;;;;;1.04;100.00;102238.41;5035226;28;45490;-77
2022/12/17 15:04:44;;;;;;;;;52.25;45.50;;;;;0.99;100.00;102235.88;5039517;28;45431;-78
2022/12/17 15:07:13;;;;;;;;;62.50;45.25;;;;;0.91;100.00;102232.59;5039481;28;45220;-78
2022/12/17 15:09:39;;;;;;;;;69.25;52.50;;;;;0.93;100.00;102244.13;5040309;28;45650;-77
2022/12/17 15:12:04;;;;;;;;;63.75;48.25;;;;;0.85;100.00;102237.28;5045586;28;46148;-78
2022/12/17 15:14:30;;;;;;;;;62.00;46.50;;;;;0.86;100.00;102239.03;5037304;28;45350;-80
2022/12/17 15:16:57;;;;;;;;;68.25;51.00;;;;;0.86;100.00;102244.38;5037771;28;47153;-77
2022/12/17 15:19:23;;;;;;;;;59.00;49.50;;;;;0.84;100.00;102244.41;5036141;28;45317;-78
2022/12/17 15:21:48;;;;;;;;;69.50;55.75;;;;;0.85;100.00;102243.50;5050837;28;46202;-76
2022/12/17 15:24:18;;;;;;;;;65.75;53.00;;;;;0.77;100.00;102234.84;5033251;28;45460;-79
2022/12/17 15:26:43;;;;;;;;;59.00;50.00;;;;;0.74;100.00;102225.09;5041139;28;45480;-76
2022/12/17 15:29:09;;;;;;;;;62.25;47.25;;;;;0.59;100.00;102209.56;5033735;28;45227;-77
2022/12/17 15:31:34;;;;;;;;;66.00;51.25;;;;;0.65;100.00;102241.47;5038226;28;45346;-77
2022/12/17 15:33:59;;;;;;;;;73.50;55.25;;;;;0.59;100.00;102244.31;5030047;28;45197;-77
2022/12/17 15:36:25;;;;;;;;;70.50;51.00;;;;;0.55;100.00;102242.69;5036128;28;45261;-78
2022/12/17 15:38:50;;;;;;;;;69.75;50.75;;;;;0.46;100.00;102242.97;5034292;28;45411;-79
2022/12/17 15:43:59;;;;;;;;;69.50;52.00;;;;;0.38;100.00;102258.34;5027251;28;45304;-77
2022/12/17 15:46:24;;;;;;;;;59.75;45.25;;;;;0.32;100.00;102263.91;5037530;28;45638;-78
2022/12/17 15:48:50;;;;;;;;;56.25;44.25;;;;;0.33;100.00;102265.66;5031725;28;45409;-77
2022/12/17 15:51:16;;;;;;;;;65.50;45.25;;;;;0.29;100.00;102250.63;5037162;28;47229;-78
2022/12/17 15:53:41;;;;;;;;;45.25;35.00;;;;;0.16;100.00;102252.78;5038881;28;45417;-80
2022/12/17 15:56:22;;;;;;;;;46.25;37.00;;;;;0.18;100.00;102261.63;5039705;28;45450;-78
2022/12/17 15:58:47;;;;;;;;;43.25;36.50;;;;;0.21;100.00;102271.38;5045696;28;45439;-81
2022/12/17 16:01:13;;;;;;;;;50.25;41.00;;;;;0.16;100.00;102279.50;5039083;28;46133;-78
2022/12/17 16:03:38;;;;;;;;;51.75;35.50;;;;;0.06;100.00;102278.03;5037094;28;45196;-77
2022/12/17 16:06:04;;;;;;;;;41.50;39.25;;;;;0.02;100.00;102291.50;5047921;28;45397;-78
2022/12/17 16:08:29;;;;;;;;;45.75;38.25;;;;;-0.07;100.00;102284.63;5037256;28;45406;-81
2022/12/17 16:10:55;;;;;;;;;43.00;38.75;;;;;-0.07;100.00;102285.50;5037813;28;45967;-77
2022/12/17 16:13:20;;;;;;;;;51.75;39.75;;;;;-0.12;100.00;102276.75;5030689;28;45335;-77
2022/12/17 16:15:54;;;;;;;;;43.75;40.50;;;;;-0.19;100.00;102277.84;5042262;28;45576;-78
2022/12/17 16:18:21;;;;;;;;;47.50;36.75;;;;;-0.23;100.00;102273.53;5039056;28;45571;-78
2022/12/17 16:20:46;;;;;;;;;50.00;39.00;;;;;-0.21;100.00;102284.16;5038893;28;46118;-77
2022/12/17 16:23:12;;;;;;;;;49.25;41.50;;;;;-0.16;100.00;102282.25;5029434;28;45767;-79
2022/12/17 16:25:37;;;;;;;;;52.50;37.75;;;;;-0.22;100.00;102272.59;5021504;28;45445;-79
2022/12/17 16:28:03;;;;;;;;;47.00;41.50;;;;;-0.23;100.00;102270.84;5028587;28;45364;-78
2022/12/17 16:30:28;;;;;;;;;55.75;46.00;;;;;-0.28;100.00;102261.19;5042389;28;45581;-78
2022/12/17 16:32:56;;;;;;;;;71.25;50.75;;;;;-0.31;100.00;102264.84;5034996;28;45330;-83
2022/12/17 16:35:22;;;;;;;;;68.75;49.50;;;;;-0.31;100.00;102264.84;5031029;28;45412;-77
2022/12/17 16:37:48;;;;;;;;;73.50;56.00;;;;;-0.30;100.00;102277.28;5032762;28;45617;-80
2022/12/17 16:40:13;;;;;;;;;77.00;53.25;;;;;-0.34;100.00;102277.41;5028531;28;46260;-80
2022/12/17 16:42:39;;;;;;;;;75.00;58.50;;;;;-0.36;100.00;102288.09;5039889;28;45374;-79
2022/12/17 16:45:05;;;;;;;;;76.50;54.50;;;;;-0.41;100.00;102298.94;5036474;28;45404;-78
2022/12/17 16:47:30;;;;;;;;;68.00;51.25;;;;;-0.43;100.00;102302.53;5035952;28;45320;-79
2022/12/17 16:49:56;;;;;;;;;82.75;57.50;;;;;-0.50;100.00;102290.28;5037732;28;45760;-79
2022/12/17 16:52:21;;;;;;;;;73.25;59.25;;;;;-0.59;100.00;102270.06;5032114;28;45225;-81
2022/12/17 16:54:47;;;;;;;;;74.25;53.75;;;;;-0.56;100.00;102269.09;5022666;28;45606;-78
2022/12/17 16:57:13;;;;;;;;;74.25;59.00;;;;;-0.61;100.00;102271.00;5037724;28;45480;-80
2022/12/17 16:59:38;;;;;;;;;76.00;55.00;;;;;-0.61;100.00;102273.69;5036660;28;45366;-81
2022/12/17 17:02:04;;;;;;;;;76.25;59.75;;;;;-0.69;100.00;102254.31;5035873;28;45421;-80
2022/12/17 17:04:29;;;;;;;;;66.75;53.00;;;;;-0.60;100.00;102272.75;5035947;28;45338;-79
2022/12/17 17:06:55;;;;;;;;;77.00;55.25;;;;;-0.66;100.00;102272.94;5038179;28;45263;-79
2022/12/17 17:09:23;;;;;;;;;66.50;53.50;;;;;-0.65;100.00;102286.22;5032987;28;48199;-78
2022/12/17 17:11:49;;;;;;;;;73.00;56.25;;;;;-0.69;100.00;102273.00;5040954;28;45386;-78
2022/12/17 17:14:15;;;;;;;;;75.00;55.75;;;;;-0.70;100.00;102274.78;5034928;28;45289;-78
2022/12/17 17:16:40;;;;;;;;;71.00;52.50;;;;;-0.70;100.00;102263.25;5039867;28;45408;-78
2022/12/17 17:19:06;;;;;;;;;73.50;56.75;;;;;-0.76;100.00;102258.94;5040376;28;45507;-78
2022/12/17 17:21:37;;;;;;;;;72.25;56.25;;;;;-0.76;100.00;102268.72;5036790;28;45275;-78
2022/12/17 17:24:06;;;;;;;;;66.50;50.00;;;;;-0.77;100.00;102286.53;5035309;28;45295;-78
2022/12/17 17:26:32;;;;;;;;;67.00;52.25;;;;;-0.82;100.00;102269.78;5041369;28;45390;-80
2022/12/17 17:28:58;;;;;;;;;74.25;57.00;;;;;-0.88;100.00;102268.13;5054803;28;46873;-78
2022/12/17 17:31:23;;;;;;;;;87.00;57.50;;;;;-0.91;100.00;102288.69;5029490;28;45582;-78
2022/12/17 17:33:50;;;;;;;;;74.50;58.75;;;;;-0.97;100.00;102287.03;5030703;28;45434;-78
2022/12/17 17:36:20;;;;;;;;;76.25;57.50;;;;;-0.99;100.00;102299.53;5039826;28;45452;-79
2022/12/17 17:38:47;;;;;;;;;71.75;54.50;;;;;-1.12;100.00;102286.53;5033563;28;45386;-81
2022/12/17 17:41:15;;;;;;;;;74.25;59.25;;;;;-1.05;100.00;102301.47;5041755;28;45348;-78
2022/12/17 17:43:41;;;;;;;;;86.50;61.00;;;;;-1.09;100.00;102292.66;5033886;28;45492;-81
2022/12/17 17:46:13;;;;;;;;;62.00;50.25;;;;;-1.09;100.00;102292.66;5041829;28;45363;-78
2022/12/17 17:48:38;;;;;;;;;74.25;57.75;;;;;-1.11;100.00;102288.28;5039442;28;46037;-79
2022/12/17 17:51:07;;;;;;;;;77.75;60.00;;;;;-1.10;100.00;102290.94;5033618;28;45464;-78
2022/12/17 17:53:34;;;;;;;;;70.25;54.25;;;;;-1.13;100.00;102284.78;5037520;28;45204;-81
2022/12/17 17:56:13;;;;;;;;;75.50;55.00;;;;;-1.08;100.00;102285.53;5035382;28;45237;-78
2022/12/17 17:58:41;;;;;;;;;70.75;53.25;;;;;-1.17;100.00;102283.13;5025331;28;45800;-78
2022/12/17 18:01:07;;;;;;;;;71.25;55.00;;;;;-1.22;100.00;102269.88;5041858;28;45426;-80
2022/12/17 18:03:33;;;;;;;;;74.50;58.25;;;;;-1.22;100.00;102277.88;5050643;28;45438;-79
2022/12/17 18:06:09;;;;;;;;;66.25;53.75;;;;;-1.19;100.00;102280.47;5041126;28;45263;-78
2022/12/17 18:08:36;;;;;;;;;64.00;49.00;;;;;-1.15;100.00;102275.94;5037357;28;46478;-79
2022/12/17 18:11:04;;;;;;;;;68.25;48.25;;;;;-1.13;100.00;102280.31;5039248;28;45209;-78
2022/12/17 18:16:14;;;;;;;;;60.25;47.00;;;;;-1.23;100.00;102262.78;5037444;28;45500;-78
2022/12/17 18:18:40;;;;;;;;;97.50;73.50;;;;;-1.19;100.00;102269.81;5034706;28;48096;-76
2022/12/17 18:21:12;;;;;;;;;70.25;54.25;;;;;-1.22;100.00;102273.41;5040641;28;45454;-77
2022/12/17 18:23:37;;;;;;;;;66.75;54.00;;;;;-1.23;100.00;102277.00;5054444;28;45389;-81
2022/12/17 18:26:06;;;;;;;;;66.00;52.25;;;;;-1.28;100.00;102276.22;5031009;28;45430;-78
2022/12/17 18:28:32;;;;;;;;;72.00;55.50;;;;;-1.33;100.00;102277.25;5036840;28;48289;-81
2022/12/17 18:31:03;;;;;;;;;82.75;57.00;;;;;-1.33;100.00;102282.59;5041179;28;45448;-77
2022/12/17 18:33:29;;;;;;;;;71.00;50.50;;;;;-1.39;100.00;102278.25;5037363;28;45290;-78
2022/12/17 18:35:54;;;;;;;;;73.25;54.75;;;;;-1.40;100.00;102270.31;5042383;28;45639;-78
2022/12/17 18:38:19;;;;;;;;;77.50;57.25;;;;;-1.38;100.00;102290.69;5042101;28;46811;-81
2022/12/17 18:40:45;;;;;;;;;78.00;62.25;;;;;-1.44;100.00;102293.47;5040490;28;45275;-77
2022/12/17 18:43:22;;;;;;;;;73.25;57.00;;;;;-1.47;100.00;102298.03;5035829;28;45365;-78
2022/12/17 18:45:48;;;;;;;;;84.50;64.00;;;;;-1.45;100.00;102312.16;5036223;28;45509;-77
2022/12/17 18:48:13;;;;;;;;;74.25;59.75;;;;;-1.42;100.00;102315.66;5034201;28;45596;-79
2022/12/17 18:50:38;;;;;;;;;77.50;59.25;;;;;-1.44;100.00;102316.59;5030195;28;45264;-78
2022/12/17 18:53:04;;;;;;;;;67.75;57.25;;;;;-1.44;100.00;102312.13;5030136;28;45275;-78
2022/12/17 18:55:29;;;;;;;;;78.75;57.75;;;;;-1.44;100.00;102317.47;5043207;28;45390;-77
2022/12/17 18:57:55;;;;;;;;;85.25;62.25;;;;;-1.49;100.00;102303.38;5030946;28;45573;-78
2022/12/17 19:00:20;;;;;;;;;77.75;58.00;;;;;-1.41;100.00;102317.41;5040149;28;45338;-79
2022/12/17 19:02:45;;;;;;;;;75.00;58.75;;;;;-1.42;100.00;102318.31;5038164;28;45354;-76
2022/12/17 19:05:11;;;;;;;;;69.75;56.00;;;;;-1.45;100.00;102314.84;5041044;28;45252;-76
2022/12/17 19:07:36;;;;;;;;;81.25;57.25;;;;;-1.49;100.00;102321.16;5038815;28;47100;-78
2022/12/17 19:10:02;;;;;;;;;74.25;56.00;;;;;-1.54;100.00;102309.72;5041085;28;45196;-76
2022/12/17 19:12:27;;;;;;;;;64.00;51.00;;;;;-1.52;100.00;102314.09;5033952;28;45457;-77
2022/12/17 19:14:53;;;;;;;;;73.25;57.50;;;;;-1.57;100.00;102308.00;5031236;28;45447;-79
2022/12/17 19:17:18;;;;;;;;;70.25;52.50;;;;;-1.58;100.00;102312.44;5030129;28;45466;-79
2022/12/17 19:19:43;;;;;;;;;71.00;55.00;;;;;-1.57;100.00;102316.88;5037220;28;45551;-76
2022/12/17 19:22:09;;;;;;;;;68.00;54.50;;;;;-1.58;100.00;102315.13;5033647;28;45416;-76
2022/12/17 19:24:34;;;;;;;;;66.25;53.00;;;;;-1.59;100.00;102324.00;5036532;28;45367;-78
2022/12/17 19:26:59;;;;;;;;;68.50;52.75;;;;;-1.65;100.00;102326.81;5033267;28;45471;-78
2022/12/17 19:29:25;;;;;;;;;70.75;53.25;;;;;-1.70;100.00;102314.50;5023131;28;45465;-78
2022/12/17 19:31:50;;;;;;;;;67.00;46.50;;;;;-1.71;100.00;102329.63;5040226;28;45389;-78
2022/12/17 19:34:17;;;;;;;;;60.75;49.25;;;;;-1.67;100.00;102325.97;5037719;28;45613;-78
2022/12/17 19:36:43;;;;;;;;;71.00;51.50;;;;;-1.63;100.00;102316.13;5031170;28;46351;-78
2022/12/17 19:39:14;;;;;;;;;66.25;53.75;;;;;-1.65;100.00;102312.63;5029488;28;46003;-78
2022/12/17 19:41:40;;;;;;;;;65.00;49.25;;;;;-1.66;100.00;102311.72;5037668;28;45551;-78
2022/12/17 19:44:07;;;;;;;;;72.50;53.75;;;;;-1.62;100.00;102309.91;5030603;28;45595;-79
2022/12/17 19:46:34;;;;;;;;;66.25;50.00;;;;;-1.61;100.00;102312.50;5039247;28;46758;-78
2022/12/17 19:49:02;;;;;;;;;73.25;51.00;;;;;-1.63;100.00;102311.69;5034340;28;45382;-78
2022/12/17 19:51:29;;;;;;;;;69.75;51.75;;;;;-1.66;100.00;102309.06;5037968;28;45466;-80
2022/12/17 19:53:55;;;;;;;;;63.50;47.00;;;;;-1.65;100.00;102324.16;5032051;28;45466;-77
2022/12/17 19:56:27;;;;;;;;;74.75;53.00;;;;;-1.65;100.00;102316.16;5038356;28;45366;-77
2022/12/17 19:58:59;;;;;;;;;60.00;47.25;;;;;-1.65;100.00;102323.28;5035074;28;45223;-80
2022/12/17 20:01:33;;;;;;;;;67.00;53.50;;;;;-1.70;100.00;102315.38;5025884;28;45409;-77
2022/12/17 20:03:59;;;;;;;;;62.00;48.50;;;;;-1.74;100.00;102324.34;5026567;28;45652;-77
2022/12/17 20:06:30;;;;;;;;;67.75;52.50;;;;;-1.71;100.00;102342.94;5047975;28;46930;-78
2022/12/17 20:09:00;;;;;;;;;65.00;48.75;;;;;-1.68;100.00;102352.66;5031427;28;46066;-77
2022/12/17 20:11:32;;;;;;;;;62.25;50.75;;;;;-1.67;100.00;102347.28;5031272;28;45362;-77
2022/12/17 20:13:58;;;;;;;;;64.50;49.25;;;;;-1.62;100.00;102341.88;5031764;28;45255;-78
2022/12/17 20:16:26;;;;;;;;;72.75;54.25;;;;;-1.58;100.00;102344.44;5027389;28;45366;-79
2022/12/17 20:18:52;;;;;;;;;71.00;53.75;;;;;-1.58;100.00;102341.75;5009805;28;45328;-78
2022/12/17 20:21:17;;;;;;;;;74.50;57.50;;;;;-1.55;100.00;102359.50;5034354;28;45341;-77
2022/12/17 20:23:46;;;;;;;;;87.50;66.25;;;;;-1.63;100.00;102354.31;5031428;28;45491;-78
2022/12/17 20:26:12;;;;;;;;;85.25;64.50;;;;;-1.69;100.00;102359.78;5024182;28;45436;-78
2022/12/17 20:28:39;;;;;;;;;85.25;65.00;;;;;-1.60;100.00;102374.69;5036675;28;45383;-78
2022/12/17 20:31:05;;;;;;;;;76.00;61.00;;;;;-1.58;100.00;102367.53;5030708;28;45401;-78
2022/12/17 20:33:31;;;;;;;;;82.75;64.25;;;;;-1.57;100.00;102367.50;5039081;28;45413;-77
2022/12/17 20:36:09;;;;;;;;;81.50;59.75;;;;;-1.67;100.00;102357.94;5026967;28;45253;-77
2022/12/17 20:38:36;;;;;;;;;86.75;64.00;;;;;-1.70;100.00;102352.69;5027229;28;45521;-78
2022/12/17 20:41:07;;;;;;;;;83.25;61.50;;;;;-1.74;100.00;102345.66;5034582;28;45525;-78
2022/12/17 20:43:33;;;;;;;;;88.50;68.25;;;;;-1.74;100.00;102345.66;5037040;28;45275;-78
2022/12/17 20:46:00;;;;;;;;;84.25;61.75;;;;;-1.66;100.00;102356.16;5051422;28;47180;-78
2022/12/17 20:48:25;;;;;;;;;88.50;67.75;;;;;-1.74;100.00;102350.09;5028640;28;45472;-78
2022/12/17 20:50:51;;;;;;;;;93.50;68.00;;;;;-1.77;100.00;102347.53;5041737;28;45450;-77
2022/12/17 20:53:16;;;;;;;;;83.00;65.75;;;;;-1.77;100.00;102355.50;5042306;28;45553;-78
2022/12/17 20:55:41;;;;;;;;;86.00;65.25;;;;;-1.72;100.00;102362.50;5037681;28;46685;-76
2022/12/17 20:58:07;;;;;;;;;90.00;69.25;;;;;-1.73;100.00;102363.41;5042355;28;45323;-76
2022/12/17 21:00:33;;;;;;;;;94.50;69.25;;;;;-1.74;100.00;102376.75;5036013;28;45351;-75
2022/12/17 21:02:59;;;;;;;;;86.75;67.00;;;;;-1.82;100.00;102357.38;5039330;28;45409;-76
2022/12/17 21:05:25;;;;;;;;;90.75;67.00;;;;;-1.69;100.00;102369.56;5033096;28;46840;-76
2022/12/17 21:07:51;;;;;;;;;88.00;67.25;;;;;-1.69;100.00;102370.44;5039844;28;45308;-76
2022/12/17 21:10:18;;;;;;;;;73.25;54.00;;;;;-1.74;100.00;102366.09;5026515;28;45366;-76
2022/12/17 21:15:27;;;;;;;;;82.50;64.75;;;;;-1.65;100.00;102388.09;5033421;28;45697;-76
2022/12/17 21:17:53;;;;;;;;;86.00;64.25;;;;;-1.67;100.00;102378.38;5038831;28;45473;-75
2022/12/17 21:20:18;;;;;;;;;84.25;63.25;;;;;-1.63;100.00;102372.97;5041239;28;45504;-75
2022/12/17 21:22:44;;;;;;;;;72.00;55.00;;;;;-1.63;100.00;102364.97;5038913;28;45608;-75
2022/12/17 21:25:09;;;;;;;;;82.25;61.50;;;;;-1.56;100.00;102371.06;5035861;28;46658;-75
2022/12/17 21:27:35;;;;;;;;;80.75;58.00;;;;;-1.57;100.00;102364.84;5036068;28;45271;-76
2022/12/17 21:30:01;;;;;;;;;82.75;62.75;;;;;-1.58;100.00;102364.88;5036942;28;45757;-76
2022/12/17 21:32:26;;;;;;;;;77.75;55.25;;;;;-1.57;100.00;102364.84;5043900;28;45650;-77
2022/12/17 21:34:51;;;;;;;;;76.75;56.75;;;;;-1.53;100.00;102354.13;5031799;28;45471;-75
2022/12/17 21:37:17;;;;;;;;;74.25;54.25;;;;;-1.53;100.00;102349.66;5042917;28;45420;-75
2022/12/17 21:39:42;;;;;;;;;72.00;53.25;;;;;-1.55;100.00;102350.63;5033365;28;45401;-76
2022/12/17 21:44:52;;;;;;;;;71.75;55.00;;;;;-1.48;100.00;102346.91;5027798;28;45880;-77
2022/12/17 21:47:17;;;;;;;;;70.50;55.00;;;;;-1.47;100.00;102354.00;5042413;28;45403;-76
2022/12/17 21:49:43;;;;;;;;;80.00;62.00;;;;;-1.54;100.00;102350.59;5033482;28;45435;-75
2022/12/17 21:52:08;;;;;;;;;76.50;55.75;;;;;-1.54;100.00;102341.72;5040983;28;45228;-77
2022/12/17 21:54:33;;;;;;;;;74.50;60.50;;;;;-1.57;100.00;102338.19;5040970;28;45335;-77
2022/12/17 21:56:59;;;;;;;;;75.50;56.25;;;;;-1.55;100.00;102327.50;5037792;28;46400;-76
2022/12/17 21:59:24;;;;;;;;;73.00;52.25;;;;;-1.58;100.00;102325.78;5032364;28;45149;-78
2022/12/17 22:01:50;;;;;;;;;70.75;51.50;;;;;-1.58;100.00;102324.91;5039756;28;45240;-76
2022/12/17 22:04:15;;;;;;;;;72.50;55.00;;;;;-1.72;100.00;102309.22;5033717;28;45327;-77
2022/12/17 22:06:42;;;;;;;;;69.75;53.00;;;;;-1.66;100.00;102325.06;5033352;28;45372;-77
2022/12/17 22:09:08;;;;;;;;;61.25;52.00;;;;;-1.66;100.00;102324.19;5041783;28;45531;-76
2022/12/17 22:11:34;;;;;;;;;64.75;51.25;;;;;-1.68;100.00;102318.03;5036576;28;45495;-76
2022/12/17 22:14:04;;;;;;;;;83.75;57.50;;;;;-1.71;100.00;102308.31;5039451;28;47135;-76
2022/12/17 22:16:41;;;;;;;;;69.50;52.75;;;;;-1.67;100.00;102315.31;5033801;28;45279;-77
2022/12/17 22:19:15;;;;;;;;;74.00;56.50;;;;;-1.70;100.00;102319.84;5040174;28;45441;-78
2022/12/17 22:21:42;;;;;;;;;80.75;55.50;;;;;-1.70;100.00;102312.72;5038982;28;45217;-76
2022/12/17 22:24:13;;;;;;;;;61.25;50.50;;;;;-1.71;100.00;102321.63;5037238;28;46275;-76
2022/12/17 22:26:39;;;;;;;;;72.75;56.00;;;;;-1.72;100.00;102317.19;5037143;28;45379;-76
2022/12/17 22:29:04;;;;;;;;;66.75;53.00;;;;;-1.80;100.00;102319.13;5042306;28;45169;-77
2022/12/17 22:34:13;;;;;;;;;79.75;55.75;;;;;-1.76;100.00;102325.31;5036080;28;45466;-77
2022/12/17 22:36:40;;;;;;;;;67.25;51.50;;;;;-1.80;100.00;102315.59;5035938;28;45272;-75
2022/12/17 22:39:09;;;;;;;;;72.25;56.75;;;;;-1.84;100.00;102330.78;5028010;28;45335;-77
2022/12/17 22:44:19;;;;;;;;;74.75;57.50;;;;;-1.90;100.00;102322.91;5036399;28;45673;-75
2022/12/17 22:46:44;;;;;;;;;68.50;52.25;;;;;-1.94;100.00;102307.91;5031014;28;44771;-77
2022/12/17 22:49:10;;;;;;;;;73.25;54.75;;;;;-1.96;100.00;102302.59;5040896;28;45448;-76
2022/12/17 22:51:35;;;;;;;;;62.50;45.50;;;;;-2.02;100.00;102305.38;5040273;28;45436;-77
2022/12/17 22:54:02;;;;;;;;;70.50;50.00;;;;;-2.05;100.00;102301.91;5039993;28;45559;-77
2022/12/17 22:56:28;;;;;;;;;72.50;52.75;;;;;-2.19;100.00;102304.81;5031513;28;45341;-77
2022/12/17 22:58:54;;;;;;;;;80.50;55.50;;;;;-2.18;100.00;102306.59;5035942;28;45343;-77
2022/12/17 23:01:20;;;;;;;;;70.25;51.50;;;;;-2.21;100.00;102292.47;5031253;28;45219;-76
2022/12/17 23:03:45;;;;;;;;;67.25;50.00;;;;;-2.23;100.00;102296.94;5039748;28;45493;-77
2022/12/17 23:06:16;;;;;;;;;67.50;54.25;;;;;-2.25;100.00;102282.78;5026310;28;45301;-76
2022/12/17 23:08:43;;;;;;;;;70.50;53.25;;;;;-2.32;100.00;102270.50;5038985;28;45544;-76
2022/12/17 23:11:11;;;;;;;;;74.00;56.75;;;;;-2.38;100.00;102272.38;5033690;28;45462;-77
2022/12/17 23:13:36;;;;;;;;;77.50;57.25;;;;;-2.38;100.00;102266.16;5038748;28;46635;-76
2022/12/17 23:16:03;;;;;;;;;73.00;55.25;;;;;-2.45;100.00;102270.72;5031293;28;45351;-75
2022/12/17 23:18:28;;;;;;;;;77.00;57.25;;;;;-2.48;100.00;102272.56;5029840;28;45446;-76
2022/12/17 23:20:54;;;;;;;;;73.75;52.50;;;;;-2.49;100.00;102276.16;5035672;28;45319;-76
2022/12/17 23:23:19;;;;;;;;;63.25;47.75;;;;;-2.53;100.00;102275.31;5038170;28;46959;-76
2022/12/17 23:25:45;;;;;;;;;68.00;53.00;;;;;-2.59;100.00;102272.78;5030574;28;45307;-76
2022/12/17 23:28:10;;;;;;;;;68.00;54.50;;;;;-2.54;100.00;102270.91;5040165;28;45437;-76
2022/12/17 23:30:37;;;;;;;;;71.50;53.50;;;;;-2.56;100.00;102277.19;5035533;28;45576;-75
2022/12/17 23:33:03;;;;;;;;;61.00;48.75;;;;;-2.58;100.00;102269.22;5041334;28;45487;-77
2022/12/17 23:35:28;;;;;;;;;71.75;54.50;;;;;-2.55;100.00;102276.25;5030711;28;45283;-75
2022/12/17 23:37:54;;;;;;;;;73.25;54.50;;;;;-2.54;100.00;102285.97;5033428;28;45478;-78
2022/12/17 23:40:20;;;;;;;;;81.25;59.00;;;;;-2.55;100.00;102285.09;5031373;28;45225;-76
2022/12/17 23:42:45;;;;;;;;;72.25;54.00;;;;;-2.56;100.00;102290.47;5041814;28;45594;-76
2022/12/17 23:45:11;;;;;;;;;74.50;57.00;;;;;-2.64;100.00;102277.31;5025164;28;45402;-76
2022/12/17 23:47:37;;;;;;;;;71.00;43.75;;;;;-2.63;100.00;102278.19;5033131;28;45217;-76
2022/12/17 23:50:03;;;;;;;;;62.25;52.50;;;;;-2.60;100.00;102275.47;5032509;28;45410;-76
2022/12/17 23:52:29;;;;;;;;;61.50;47.75;;;;;-2.59;100.00;102288.75;5040313;28;46422;-77
2022/12/17 23:54:54;;;;;;;;;74.50;59.75;;;;;-2.65;100.00;102280.88;5038407;28;45337;-76
2022/12/17 23:57:20;;;;;;;;;79.75;59.75;;;;;-2.62;100.00;102288.78;5028441;28;45449;-76
2022/12/17 23:59:45;;;;;;;;;70.25;52.00;;;;;-2.64;100.00;102282.63;5037359;28;45555;-76
